createdAt,value
2019-04-19T00:02:56.163Z,16.40
2019-04-19T00:08:20.160Z,16.40
2019-04-19T00:13:09.750Z,16.40
2019-04-19T00:18:18.257Z,16.30
2019-04-19T00:23:31.368Z,16.30
2019-04-19T00:28:39.434Z,16.20
2019-04-19T00:33:42.558Z,16.20
2019-04-19T00:38:57.207Z,16.10
2019-04-19T00:44:25.663Z,16.00
2019-04-19T00:49:16.260Z,15.90
2019-04-19T00:54:23.001Z,15.80
2019-04-19T00:59:22.817Z,15.70
2019-04-19T01:04:32.760Z,15.40
2019-04-19T01:09:46.446Z,15.20
2019-04-19T01:14:51.950Z,15.00
2019-04-19T01:19:53.606Z,14.80
2019-04-19T01:24:56.292Z,14.70
2019-04-19T01:30:02.792Z,14.80
2019-04-19T01:35:13.720Z,14.80
2019-04-19T01:40:36.790Z,14.80
2019-04-19T01:46:07.657Z,14.70
2019-04-19T01:51:15.883Z,14.70
2019-04-19T01:56:13.245Z,14.70
2019-04-19T02:01:22.098Z,14.70
2019-04-19T02:06:29.348Z,14.80
2019-04-19T02:11:54.470Z,14.80
2019-04-19T02:16:56.906Z,14.80
2019-04-19T02:22:00.159Z,14.90
2019-04-19T02:27:09.160Z,14.90
2019-04-19T02:32:29.898Z,14.90
2019-04-19T02:37:41.855Z,14.90
2019-04-19T02:42:44.879Z,14.90
2019-04-19T02:47:57.886Z,14.80
2019-04-19T02:53:05.312Z,14.80
2019-04-19T02:58:23.688Z,14.80
2019-04-19T03:03:21.046Z,14.60
2019-04-19T03:08:01.751Z,14.60
2019-04-19T03:13:21.960Z,14.60
2019-04-19T03:18:42.372Z,14.40
2019-04-19T03:23:32.991Z,14.30
2019-04-19T03:28:35.418Z,14.20
2019-04-19T03:34:04.984Z,14.10
2019-04-19T03:38:57.977Z,14.10
2019-04-19T03:44:22.219Z,14.10
2019-04-19T03:49:37.256Z,14.10
2019-04-19T03:54:37.132Z,14.00
2019-04-19T03:59:26.855Z,13.90
2019-04-19T04:04:35.132Z,13.90
2019-04-19T04:10:16.123Z,13.80
2019-04-19T04:15:51.602Z,13.70
2019-04-19T04:20:50.219Z,13.70
2019-04-19T04:25:59.149Z,13.60
2019-04-19T04:31:09.748Z,13.60
2019-04-19T04:36:25.221Z,13.50
2019-04-19T04:41:14.948Z,13.30
2019-04-19T04:47:02.354Z,13.40
2019-04-19T04:52:31.610Z,13.30
2019-04-19T04:57:41.664Z,13.30
2019-04-19T05:02:51.865Z,13.30
2019-04-19T05:08:09.280Z,13.40
2019-04-19T05:23:26.535Z,13.30
2019-04-19T05:28:33.267Z,13.40
2019-04-19T05:33:39.699Z,13.40
2019-04-19T05:39:03.096Z,13.50
2019-04-19T05:44:27.010Z,13.50
2019-04-19T05:49:19.944Z,13.60
2019-04-19T05:54:14.073Z,13.60
2019-04-19T05:59:31.903Z,13.70
2019-04-19T06:04:43.548Z,13.80
2019-04-19T06:09:32.593Z,13.90
2019-04-19T06:15:02.313Z,14.00
2019-04-19T06:20:09.566Z,14.00
2019-04-19T06:25:12.441Z,14.10
2019-04-19T06:30:38.857Z,14.20
2019-04-19T06:35:22.471Z,14.40
2019-04-19T06:40:25.846Z,14.50
2019-04-19T06:45:44.310Z,14.80
2019-04-19T06:50:38.440Z,15.10
2019-04-19T06:55:43.253Z,15.30
2019-04-19T07:00:59.525Z,15.60
2019-04-19T07:06:09.481Z,15.90
2019-04-19T07:11:16.322Z,16.20
2019-04-19T07:16:25.314Z,16.60
2019-04-19T07:21:29.074Z,16.90
2019-04-19T07:26:33.828Z,17.10
2019-04-19T07:31:18.410Z,17.40
2019-04-19T07:41:43.891Z,17.90
2019-04-19T07:47:06.878Z,18.20
2019-04-19T07:52:06.118Z,18.60
2019-04-19T07:57:37.447Z,19.00
2019-04-19T08:02:46.842Z,19.30
2019-04-19T08:12:46.104Z,20.10
2019-04-19T08:17:56.704Z,20.40
2019-04-19T08:28:01.576Z,20.50
2019-04-19T08:32:55.643Z,20.90
2019-04-19T08:38:06.987Z,20.90
2019-04-19T08:43:26.844Z,21.10
2019-04-19T08:48:44.300Z,21.30
2019-04-19T08:53:57.153Z,21.50
2019-04-19T08:59:05.814Z,21.90
2019-04-19T09:04:17.069Z,22.00
2019-04-19T09:09:27.840Z,22.10
2019-04-19T09:14:35.492Z,22.00
2019-04-19T09:20:01.126Z,22.30
2019-04-19T09:24:42.914Z,22.60
2019-04-19T09:29:59.111Z,22.70
2019-04-19T09:34:51.970Z,22.80
2019-04-19T09:40:02.150Z,22.80
2019-04-19T09:45:02.009Z,22.80
2019-04-19T09:50:26.216Z,23.00
2019-04-19T09:55:33.101Z,23.30
2019-04-19T10:00:27.812Z,23.60
2019-04-19T10:05:32.793Z,23.80
2019-04-19T10:10:41.104Z,24.10
2019-04-19T10:16:00.701Z,24.10
2019-04-19T10:21:26.691Z,24.10
2019-04-19T10:26:34.293Z,24.30
2019-04-19T10:32:10.650Z,24.30
2019-04-19T10:37:17.576Z,24.70
2019-04-19T10:42:23.107Z,24.80
2019-04-19T10:47:53.921Z,24.80
2019-04-19T10:53:00.590Z,25.00
2019-04-19T10:58:21.641Z,25.30
2019-04-19T11:03:25.071Z,25.40
2019-04-19T11:08:32.816Z,25.50
2019-04-19T11:13:40.149Z,25.70
2019-04-19T11:18:46.303Z,25.90
2019-04-19T11:23:53.629Z,25.90
2019-04-19T11:29:00.939Z,26.00
2019-04-19T11:34:06.896Z,26.00
2019-04-19T11:39:14.876Z,26.30
2019-04-19T11:44:22.902Z,26.40
2019-04-19T11:49:35.236Z,26.40
2019-04-19T11:54:36.585Z,26.30
2019-04-19T11:59:49.425Z,26.50
2019-04-19T12:04:52.543Z,26.60
2019-04-19T12:09:59.111Z,26.80
2019-04-19T12:15:06.216Z,27.00
2019-04-19T12:20:13.168Z,27.00
2019-04-19T12:25:19.578Z,27.00
2019-04-19T12:30:25.238Z,27.10
2019-04-19T12:35:31.403Z,27.30
2019-04-19T12:40:45.676Z,27.30
2019-04-19T12:45:51.884Z,27.30
2019-04-19T12:50:58.343Z,27.10
2019-04-19T12:56:11.725Z,27.10
2019-04-19T13:01:22.101Z,27.30
2019-04-19T13:07:02.753Z,27.40
2019-04-19T13:12:10.747Z,27.50
2019-04-19T13:17:14.421Z,27.70
2019-04-19T13:22:20.587Z,27.40
2019-04-19T13:27:39.628Z,27.60
2019-04-19T13:32:33.544Z,27.60
2019-04-19T13:38:07.734Z,27.70
2019-04-19T13:43:15.224Z,27.40
2019-04-19T13:48:22.561Z,27.50
2019-04-19T13:53:28.833Z,27.50
2019-04-19T13:58:35.750Z,27.40
2019-04-19T14:03:41.501Z,27.70
2019-04-19T14:08:51.158Z,27.80
2019-04-19T14:14:00.342Z,27.90
2019-04-19T14:19:07.237Z,27.90
2019-04-19T14:24:13.496Z,27.90
2019-04-19T14:29:19.260Z,27.90
2019-04-19T14:34:24.863Z,27.90
2019-04-19T14:39:30.890Z,27.80
2019-04-19T14:44:36.218Z,27.90
2019-04-19T14:49:42.836Z,27.70
2019-04-19T14:54:50.399Z,27.90
2019-04-19T14:59:56.835Z,27.70
2019-04-19T15:05:07.641Z,27.60
2019-04-19T15:10:13.558Z,27.60
2019-04-19T15:15:20.326Z,27.50
2019-04-19T15:25:36.988Z,27.40
2019-04-19T15:30:45.006Z,27.30
2019-04-19T15:35:49.820Z,27.20
2019-04-19T15:40:58.330Z,27.30
2019-04-19T15:46:03.927Z,27.40
2019-04-19T15:51:19.159Z,27.20
2019-04-19T15:56:22.312Z,27.30
2019-04-19T16:01:46.234Z,27.20
2019-04-19T16:07:06.061Z,27.30
2019-04-19T16:12:31.525Z,27.20
2019-04-19T16:17:38.020Z,27.10
2019-04-19T16:22:44.604Z,27.00
2019-04-19T16:27:50.174Z,27.00
2019-04-19T16:32:55.974Z,26.90
2019-04-19T16:38:01.620Z,26.90
2019-04-19T16:43:07.751Z,26.80
2019-04-19T16:48:14.579Z,26.80
2019-04-19T16:53:21.832Z,26.60
2019-04-19T16:58:28.569Z,26.50
2019-04-19T17:03:39.704Z,26.50
2019-04-19T17:08:44.294Z,26.40
2019-04-19T17:13:50.800Z,26.30
2019-04-19T17:19:19.015Z,26.00
2019-04-19T17:24:24.949Z,25.90
2019-04-19T17:29:31.057Z,25.80
2019-04-19T17:34:36.286Z,25.70
2019-04-19T17:39:42.504Z,25.50
2019-04-19T17:44:51.598Z,25.30
2019-04-19T17:49:58.131Z,25.10
2019-04-19T17:55:13.414Z,24.90
2019-04-19T18:00:10.405Z,24.60
2019-04-19T18:05:15.996Z,24.40
2019-04-19T18:10:26.716Z,24.20
2019-04-19T18:15:28.171Z,23.80
2019-04-19T18:20:34.819Z,23.50
2019-04-19T18:25:41.455Z,23.10
2019-04-19T18:30:51.427Z,22.90
2019-04-19T18:36:00.999Z,22.10
2019-04-19T18:40:58.819Z,21.80
2019-04-19T18:46:04.792Z,21.60
2019-04-19T18:51:13.456Z,21.20
2019-04-19T18:56:21.728Z,21.20
2019-04-19T19:01:31.003Z,21.00
2019-04-19T19:06:36.661Z,20.60
2019-04-19T19:11:38.096Z,20.60
2019-04-19T19:16:44.836Z,20.30
2019-04-19T19:21:53.279Z,20.10
2019-04-19T19:27:07.346Z,19.80
2019-04-19T19:32:10.664Z,19.60
2019-04-19T19:37:17.763Z,19.40
2019-04-19T19:42:45.780Z,19.30
2019-04-19T19:48:12.731Z,19.10
2019-04-19T19:53:25.748Z,18.90
2019-04-19T19:58:17.052Z,18.80
2019-04-19T20:03:20.721Z,18.60
2019-04-19T20:08:30.151Z,18.50
2019-04-19T20:13:37.235Z,18.20
2019-04-19T20:18:39.611Z,18.10
2019-04-19T20:23:58.913Z,18.00
2019-04-19T20:28:51.949Z,17.90
2019-04-19T20:34:00.432Z,17.80
2019-04-19T20:39:07.788Z,17.80
2019-04-19T20:44:31.770Z,17.60
2019-04-19T20:49:19.812Z,17.50
2019-04-19T20:54:46.560Z,17.10
2019-04-19T20:59:39.991Z,17.10
2019-04-19T21:04:46.495Z,17.00
2019-04-19T21:09:47.530Z,17.00
2019-04-19T21:14:52.857Z,17.00
2019-04-19T21:19:58.489Z,16.80
2019-04-19T21:25:15.904Z,16.60
2019-04-19T21:30:13.344Z,16.50
2019-04-19T21:35:19.328Z,16.50
2019-04-19T21:40:29.992Z,16.40
2019-04-19T21:45:37.825Z,16.30
2019-04-19T21:50:42.045Z,16.30
2019-04-19T21:55:54.164Z,16.30
2019-04-19T22:01:03.623Z,16.30
2019-04-19T22:06:11.714Z,16.40
2019-04-19T22:11:12.017Z,16.40
2019-04-19T22:16:21.599Z,16.50
2019-04-19T22:21:30.181Z,16.50
2019-04-19T22:26:34.572Z,16.50
2019-04-19T22:31:36.639Z,16.60
2019-04-19T22:36:47.007Z,16.60
2019-04-19T22:41:50.733Z,16.70
2019-04-19T22:46:56.550Z,16.70
2019-04-19T22:52:02.658Z,16.70
2019-04-19T22:57:13.845Z,16.80
2019-04-19T23:02:37.330Z,16.80
2019-04-19T23:07:47.275Z,16.90
2019-04-19T23:12:49.382Z,16.80
2019-04-19T23:17:54.684Z,16.80
2019-04-19T23:23:00.953Z,16.80
2019-04-19T23:28:15.429Z,16.80
2019-04-19T23:33:19.060Z,16.80
2019-04-19T23:38:25.552Z,16.80
2019-04-19T23:43:34.189Z,16.80
2019-04-19T23:48:35.715Z,16.90
2019-04-19T23:53:44.511Z,16.90
2019-04-19T23:58:48.272Z,16.90
